sensor_id;sensor_type;location;lat;lon;timestamp;P1;durP1;ratioP1;P2;durP2;ratioP2
62790;SDS011;48830;53.426;10.300;2023-03-21T00:01:30;27.17;;;17.40;;
62790;SDS011;48830;53.426;10.300;2023-03-21T00:03:55;25.70;;;18.13;;
62790;SDS011;48830;53.426;10.300;2023-03-21T00:06:21;28.17;;;19.03;;
62790;SDS011;48830;53.426;10.300;2023-03-21T00:08:46;30.73;;;20.73;;
62790;SDS011;48830;53.426;10.300;2023-03-21T00:11:12;32.40;;;20.90;;
62790;SDS011;48830;53.426;10.300;2023-03-21T00:13:38;35.53;;;23.37;;
62790;SDS011;48830;53.426;10.300;2023-03-21T00:16:13;30.90;;;21.97;;
62790;SDS011;48830;53.426;10.300;2023-03-21T00:18:41;30.37;;;20.47;;
62790;SDS011;48830;53.426;10.300;2023-03-21T00:21:13;26.63;;;19.60;;
62790;SDS011;48830;53.426;10.300;2023-03-21T00:23:40;29.50;;;20.63;;
62790;SDS011;48830;53.426;10.300;2023-03-21T00:26:06;28.13;;;20.97;;
62790;SDS011;48830;53.426;10.300;2023-03-21T00:28:37;31.93;;;22.17;;
62790;SDS011;48830;53.426;10.300;2023-03-21T00:31:05;30.53;;;21.00;;
62790;SDS011;48830;53.426;10.300;2023-03-21T00:33:31;32.57;;;22.07;;
62790;SDS011;48830;53.426;10.300;2023-03-21T00:35:58;32.47;;;21.50;;
62790;SDS011;48830;53.426;10.300;2023-03-21T00:38:25;32.10;;;21.33;;
62790;SDS011;48830;53.426;10.300;2023-03-21T00:40:51;31.40;;;22.57;;
62790;SDS011;48830;53.426;10.300;2023-03-21T00:43:17;30.27;;;20.97;;
62790;SDS011;48830;53.426;10.300;2023-03-21T00:45:44;32.87;;;21.73;;
62790;SDS011;48830;53.426;10.300;2023-03-21T00:48:10;35.30;;;22.67;;
62790;SDS011;48830;53.426;10.300;2023-03-21T00:50:37;34.73;;;22.70;;
62790;SDS011;48830;53.426;10.300;2023-03-21T00:53:04;32.30;;;22.57;;
62790;SDS011;48830;53.426;10.300;2023-03-21T00:55:32;33.20;;;22.77;;
62790;SDS011;48830;53.426;10.300;2023-03-21T00:57:58;33.10;;;22.60;;
62790;SDS011;48830;53.426;10.300;2023-03-21T01:00:24;31.87;;;21.83;;
62790;SDS011;48830;53.426;10.300;2023-03-21T01:02:49;33.83;;;22.63;;
62790;SDS011;48830;53.426;10.300;2023-03-21T01:05:25;31.17;;;21.03;;
62790;SDS011;48830;53.426;10.300;2023-03-21T01:08:11;33.27;;;21.37;;
62790;SDS011;48830;53.426;10.300;2023-03-21T01:10:38;34.07;;;22.70;;
62790;SDS011;48830;53.426;10.300;2023-03-21T01:13:05;32.50;;;21.87;;
62790;SDS011;48830;53.426;10.300;2023-03-21T01:15:31;35.20;;;23.90;;
62790;SDS011;48830;53.426;10.300;2023-03-21T01:17:57;31.37;;;22.27;;
62790;SDS011;48830;53.426;10.300;2023-03-21T01:20:22;30.87;;;21.90;;
62790;SDS011;48830;53.426;10.300;2023-03-21T01:22:48;29.57;;;21.43;;
62790;SDS011;48830;53.426;10.300;2023-03-21T01:25:13;32.80;;;21.93;;
62790;SDS011;48830;53.426;10.300;2023-03-21T01:27:39;32.07;;;21.63;;
62790;SDS011;48830;53.426;10.300;2023-03-21T01:30:04;30.77;;;21.33;;
62790;SDS011;48830;53.426;10.300;2023-03-21T01:32:30;31.77;;;22.17;;
62790;SDS011;48830;53.426;10.300;2023-03-21T01:34:56;33.23;;;21.73;;
62790;SDS011;48830;53.426;10.300;2023-03-21T01:37:21;32.33;;;22.40;;
62790;SDS011;48830;53.426;10.300;2023-03-21T01:39:49;34.00;;;22.93;;
62790;SDS011;48830;53.426;10.300;2023-03-21T01:42:14;33.47;;;22.37;;
62790;SDS011;48830;53.426;10.300;2023-03-21T01:44:55;36.63;;;23.20;;
62790;SDS011;48830;53.426;10.300;2023-03-21T01:47:22;34.97;;;23.37;;
62790;SDS011;48830;53.426;10.300;2023-03-21T01:50:02;35.87;;;22.80;;
62790;SDS011;48830;53.426;10.300;2023-03-21T01:52:37;34.67;;;23.27;;
62790;SDS011;48830;53.426;10.300;2023-03-21T01:55:14;33.67;;;23.97;;
62790;SDS011;48830;53.426;10.300;2023-03-21T01:58:04;35.42;;;24.00;;
62790;SDS011;48830;53.426;10.300;2023-03-21T02:01:04;35.63;;;24.63;;
62790;SDS011;48830;53.426;10.300;2023-03-21T02:03:43;34.43;;;23.10;;
62790;SDS011;48830;53.426;10.300;2023-03-21T02:09:03;40.03;;;24.20;;
62790;SDS011;48830;53.426;10.300;2023-03-21T02:11:32;37.60;;;24.53;;
62790;SDS011;48830;53.426;10.300;2023-03-21T02:14:00;37.50;;;24.13;;
62790;SDS011;48830;53.426;10.300;2023-03-21T02:16:46;33.87;;;23.30;;
62790;SDS011;48830;53.426;10.300;2023-03-21T02:21:59;36.07;;;24.37;;
62790;SDS011;48830;53.426;10.300;2023-03-21T02:27:22;38.00;;;24.60;;
62790;SDS011;48830;53.426;10.300;2023-03-21T02:38:40;39.47;;;23.73;;
62790;SDS011;48830;53.426;10.300;2023-03-21T02:41:19;37.13;;;24.30;;
62790;SDS011;48830;53.426;10.300;2023-03-21T02:51:54;41.83;;;25.07;;
62790;SDS011;48830;53.426;10.300;2023-03-21T02:54:22;37.77;;;23.67;;
62790;SDS011;48830;53.426;10.300;2023-03-21T02:56:50;37.03;;;24.00;;
62790;SDS011;48830;53.426;10.300;2023-03-21T02:59:18;40.03;;;25.27;;
62790;SDS011;48830;53.426;10.300;2023-03-21T03:01:46;40.73;;;25.73;;
62790;SDS011;48830;53.426;10.300;2023-03-21T03:04:18;38.17;;;24.90;;
62790;SDS011;48830;53.426;10.300;2023-03-21T03:06:50;38.50;;;25.13;;
62790;SDS011;48830;53.426;10.300;2023-03-21T03:11:57;37.97;;;24.07;;
62790;SDS011;48830;53.426;10.300;2023-03-21T03:25:30;38.60;;;24.80;;
62790;SDS011;48830;53.426;10.300;2023-03-21T03:28:03;36.17;;;24.30;;
62790;SDS011;48830;53.426;10.300;2023-03-21T03:30:30;37.67;;;24.43;;
62790;SDS011;48830;53.426;10.300;2023-03-21T03:32:58;36.83;;;24.07;;
62790;SDS011;48830;53.426;10.300;2023-03-21T03:35:27;36.27;;;24.47;;
62790;SDS011;48830;53.426;10.300;2023-03-21T03:37:54;35.57;;;24.50;;
62790;SDS011;48830;53.426;10.300;2023-03-21T03:40:30;35.73;;;23.63;;
62790;SDS011;48830;53.426;10.300;2023-03-21T03:43:25;36.50;;;23.50;;
62790;SDS011;48830;53.426;10.300;2023-03-21T03:46:00;35.30;;;22.43;;
62790;SDS011;48830;53.426;10.300;2023-03-21T03:48:39;38.70;;;24.93;;
62790;SDS011;48830;53.426;10.300;2023-03-21T03:51:54;33.03;;;22.77;;
62790;SDS011;48830;53.426;10.300;2023-03-21T03:54:25;33.77;;;22.33;;
62790;SDS011;48830;53.426;10.300;2023-03-21T03:56:55;34.47;;;23.53;;
62790;SDS011;48830;53.426;10.300;2023-03-21T03:59:21;34.87;;;23.67;;
62790;SDS011;48830;53.426;10.300;2023-03-21T04:02:05;38.00;;;24.13;;
62790;SDS011;48830;53.426;10.300;2023-03-21T04:04:31;33.60;;;24.23;;
62790;SDS011;48830;53.426;10.300;2023-03-21T04:06:57;37.10;;;24.77;;
62790;SDS011;48830;53.426;10.300;2023-03-21T04:09:24;36.63;;;24.30;;
62790;SDS011;48830;53.426;10.300;2023-03-21T04:11:53;37.77;;;24.70;;
62790;SDS011;48830;53.426;10.300;2023-03-21T04:14:18;38.17;;;25.23;;
62790;SDS011;48830;53.426;10.300;2023-03-21T04:16:44;41.37;;;26.50;;
62790;SDS011;48830;53.426;10.300;2023-03-21T04:19:10;36.60;;;24.93;;
62790;SDS011;48830;53.426;10.300;2023-03-21T04:21:36;38.67;;;26.37;;
62790;SDS011;48830;53.426;10.300;2023-03-21T04:24:02;37.00;;;24.60;;
62790;SDS011;48830;53.426;10.300;2023-03-21T04:26:28;39.57;;;25.97;;
62790;SDS011;48830;53.426;10.300;2023-03-21T04:29:26;36.77;;;25.27;;
62790;SDS011;48830;53.426;10.300;2023-03-21T04:32:16;37.37;;;24.73;;
62790;SDS011;48830;53.426;10.300;2023-03-21T04:34:47;42.43;;;25.57;;
62790;SDS011;48830;53.426;10.300;2023-03-21T04:37:16;40.27;;;25.83;;
62790;SDS011;48830;53.426;10.300;2023-03-21T04:39:44;37.07;;;25.40;;
62790;SDS011;48830;53.426;10.300;2023-03-21T04:42:13;38.77;;;25.37;;
62790;SDS011;48830;53.426;10.300;2023-03-21T04:44:39;40.50;;;25.53;;
62790;SDS011;48830;53.426;10.300;2023-03-21T04:47:05;38.90;;;25.97;;
62790;SDS011;48830;53.426;10.300;2023-03-21T04:49:31;42.53;;;27.40;;
62790;SDS011;48830;53.426;10.300;2023-03-21T04:51:57;40.83;;;26.80;;
62790;SDS011;48830;53.426;10.300;2023-03-21T04:54:23;45.30;;;28.20;;
62790;SDS011;48830;53.426;10.300;2023-03-21T04:56:48;45.43;;;27.33;;
62790;SDS011;48830;53.426;10.300;2023-03-21T04:59:16;46.63;;;28.40;;
62790;SDS011;48830;53.426;10.300;2023-03-21T05:01:43;41.93;;;27.07;;
62790;SDS011;48830;53.426;10.300;2023-03-21T05:04:10;44.53;;;28.67;;
62790;SDS011;48830;53.426;10.300;2023-03-21T05:06:37;47.07;;;28.00;;
62790;SDS011;48830;53.426;10.300;2023-03-21T05:09:03;45.50;;;27.90;;
62790;SDS011;48830;53.426;10.300;2023-03-21T05:11:33;48.10;;;29.80;;
62790;SDS011;48830;53.426;10.300;2023-03-21T05:14:03;47.27;;;29.50;;
62790;SDS011;48830;53.426;10.300;2023-03-21T05:16:29;43.70;;;28.07;;
62790;SDS011;48830;53.426;10.300;2023-03-21T05:18:58;49.13;;;30.93;;
62790;SDS011;48830;53.426;10.300;2023-03-21T05:21:30;48.20;;;28.80;;
62790;SDS011;48830;53.426;10.300;2023-03-21T05:24:08;46.63;;;30.23;;
62790;SDS011;48830;53.426;10.300;2023-03-21T05:26:37;50.33;;;30.73;;
62790;SDS011;48830;53.426;10.300;2023-03-21T05:29:11;48.90;;;29.10;;
62790;SDS011;48830;53.426;10.300;2023-03-21T05:31:37;50.13;;;31.60;;
62790;SDS011;48830;53.426;10.300;2023-03-21T05:34:07;50.77;;;29.73;;
62790;SDS011;48830;53.426;10.300;2023-03-21T05:36:33;51.57;;;31.30;;
62790;SDS011;48830;53.426;10.300;2023-03-21T05:39:01;52.37;;;30.90;;
62790;SDS011;48830;53.426;10.300;2023-03-21T05:41:28;57.07;;;32.30;;
62790;SDS011;48830;53.426;10.300;2023-03-21T05:43:56;48.87;;;29.63;;
62790;SDS011;48830;53.426;10.300;2023-03-21T05:46:21;51.93;;;31.10;;
62790;SDS011;48830;53.426;10.300;2023-03-21T05:48:47;54.23;;;32.10;;
62790;SDS011;48830;53.426;10.300;2023-03-21T05:51:15;55.37;;;31.13;;
62790;SDS011;48830;53.426;10.300;2023-03-21T05:53:41;50.03;;;31.70;;
62790;SDS011;48830;53.426;10.300;2023-03-21T05:56:07;52.97;;;32.03;;
62790;SDS011;48830;53.426;10.300;2023-03-21T05:58:56;52.10;;;31.30;;
62790;SDS011;48830;53.426;10.300;2023-03-21T06:01:23;51.47;;;31.80;;
62790;SDS011;48830;53.426;10.300;2023-03-21T06:03:56;53.67;;;32.37;;
62790;SDS011;48830;53.426;10.300;2023-03-21T06:06:24;56.17;;;31.83;;
62790;SDS011;48830;53.426;10.300;2023-03-21T06:08:53;52.47;;;32.87;;
62790;SDS011;48830;53.426;10.300;2023-03-21T06:11:25;52.17;;;32.10;;
62790;SDS011;48830;53.426;10.300;2023-03-21T06:14:10;52.47;;;32.63;;
62790;SDS011;48830;53.426;10.300;2023-03-21T06:16:36;51.47;;;32.03;;
62790;SDS011;48830;53.426;10.300;2023-03-21T06:19:02;50.97;;;31.30;;
62790;SDS011;48830;53.426;10.300;2023-03-21T06:21:47;49.23;;;31.30;;
62790;SDS011;48830;53.426;10.300;2023-03-21T06:24:13;55.43;;;33.23;;
62790;SDS011;48830;53.426;10.300;2023-03-21T06:26:40;52.90;;;32.93;;
62790;SDS011;48830;53.426;10.300;2023-03-21T06:29:08;55.40;;;32.63;;
62790;SDS011;48830;53.426;10.300;2023-03-21T06:31:34;52.47;;;31.63;;
62790;SDS011;48830;53.426;10.300;2023-03-21T06:34:02;49.90;;;32.17;;
62790;SDS011;48830;53.426;10.300;2023-03-21T06:36:27;50.13;;;32.20;;
62790;SDS011;48830;53.426;10.300;2023-03-21T06:38:53;53.67;;;32.37;;
62790;SDS011;48830;53.426;10.300;2023-03-21T06:41:18;49.83;;;32.50;;
62790;SDS011;48830;53.426;10.300;2023-03-21T06:43:54;53.47;;;32.97;;
62790;SDS011;48830;53.426;10.300;2023-03-21T06:46:20;53.47;;;33.13;;
62790;SDS011;48830;53.426;10.300;2023-03-21T06:48:46;55.13;;;33.17;;
62790;SDS011;48830;53.426;10.300;2023-03-21T06:51:12;55.40;;;32.97;;
62790;SDS011;48830;53.426;10.300;2023-03-21T06:53:47;56.20;;;33.70;;
62790;SDS011;48830;53.426;10.300;2023-03-21T06:56:13;57.97;;;33.53;;
62790;SDS011;48830;53.426;10.300;2023-03-21T06:58:40;54.80;;;34.30;;
62790;SDS011;48830;53.426;10.300;2023-03-21T07:01:10;53.47;;;33.57;;
62790;SDS011;48830;53.426;10.300;2023-03-21T07:03:47;54.87;;;33.47;;
62790;SDS011;48830;53.426;10.300;2023-03-21T07:06:12;53.13;;;33.47;;
62790;SDS011;48830;53.426;10.300;2023-03-21T07:08:38;54.07;;;31.87;;
62790;SDS011;48830;53.426;10.300;2023-03-21T07:11:05;56.57;;;33.90;;
62790;SDS011;48830;53.426;10.300;2023-03-21T07:13:32;53.73;;;32.57;;
62790;SDS011;48830;53.426;10.300;2023-03-21T07:16:02;51.53;;;31.83;;
62790;SDS011;48830;53.426;10.300;2023-03-21T07:18:28;50.40;;;31.67;;
62790;SDS011;48830;53.426;10.300;2023-03-21T07:20:55;55.13;;;33.07;;
62790;SDS011;48830;53.426;10.300;2023-03-21T07:23:22;52.37;;;32.20;;
62790;SDS011;48830;53.426;10.300;2023-03-21T07:25:50;50.57;;;32.07;;
62790;SDS011;48830;53.426;10.300;2023-03-21T07:28:16;53.43;;;32.47;;
62790;SDS011;48830;53.426;10.300;2023-03-21T07:30:43;52.00;;;32.07;;
62790;SDS011;48830;53.426;10.300;2023-03-21T07:33:10;52.67;;;33.07;;
62790;SDS011;48830;53.426;10.300;2023-03-21T07:35:36;52.30;;;32.77;;
62790;SDS011;48830;53.426;10.300;2023-03-21T07:38:03;50.20;;;31.43;;
62790;SDS011;48830;53.426;10.300;2023-03-21T07:40:29;46.63;;;31.23;;
62790;SDS011;48830;53.426;10.300;2023-03-21T07:42:55;47.10;;;31.23;;
62790;SDS011;48830;53.426;10.300;2023-03-21T07:45:28;47.70;;;30.23;;
62790;SDS011;48830;53.426;10.300;2023-03-21T07:47:54;49.10;;;32.90;;
62790;SDS011;48830;53.426;10.300;2023-03-21T07:50:20;50.00;;;33.63;;
62790;SDS011;48830;53.426;10.300;2023-03-21T07:52:46;45.63;;;29.93;;
62790;SDS011;48830;53.426;10.300;2023-03-21T07:55:12;44.03;;;29.27;;
62790;SDS011;48830;53.426;10.300;2023-03-21T07:57:37;46.00;;;29.33;;
62790;SDS011;48830;53.426;10.300;2023-03-21T08:00:03;44.10;;;28.43;;
62790;SDS011;48830;53.426;10.300;2023-03-21T08:02:38;44.70;;;29.70;;
62790;SDS011;48830;53.426;10.300;2023-03-21T08:05:03;49.73;;;30.87;;
62790;SDS011;48830;53.426;10.300;2023-03-21T08:07:29;43.73;;;30.27;;
62790;SDS011;48830;53.426;10.300;2023-03-21T08:09:55;45.47;;;29.93;;
62790;SDS011;48830;53.426;10.300;2023-03-21T08:12:20;45.80;;;30.87;;
62790;SDS011;48830;53.426;10.300;2023-03-21T08:14:46;43.60;;;30.73;;
62790;SDS011;48830;53.426;10.300;2023-03-21T08:17:11;50.47;;;32.97;;
62790;SDS011;48830;53.426;10.300;2023-03-21T08:19:37;46.77;;;30.37;;
62790;SDS011;48830;53.426;10.300;2023-03-21T08:22:03;50.13;;;31.03;;
62790;SDS011;48830;53.426;10.300;2023-03-21T08:24:29;44.60;;;31.37;;
62790;SDS011;48830;53.426;10.300;2023-03-21T08:26:55;49.50;;;30.90;;
62790;SDS011;48830;53.426;10.300;2023-03-21T08:29:20;47.47;;;31.30;;
62790;SDS011;48830;53.426;10.300;2023-03-21T08:31:46;50.83;;;31.93;;
62790;SDS011;48830;53.426;10.300;2023-03-21T08:34:11;50.27;;;31.23;;
62790;SDS011;48830;53.426;10.300;2023-03-21T08:36:38;51.20;;;32.00;;
62790;SDS011;48830;53.426;10.300;2023-03-21T08:39:04;47.87;;;32.70;;
62790;SDS011;48830;53.426;10.300;2023-03-21T08:41:30;48.00;;;31.80;;
62790;SDS011;48830;53.426;10.300;2023-03-21T08:43:56;45.78;;;30.60;;
62790;SDS011;48830;53.426;10.300;2023-03-21T08:46:22;44.50;;;29.20;;
62790;SDS011;48830;53.426;10.300;2023-03-21T08:48:47;40.65;;;28.05;;
62790;SDS011;48830;53.426;10.300;2023-03-21T08:51:13;42.60;;;27.83;;
62790;SDS011;48830;53.426;10.300;2023-03-21T08:53:39;41.23;;;27.97;;
62790;SDS011;48830;53.426;10.300;2023-03-21T08:56:05;36.77;;;25.53;;
62790;SDS011;48830;53.426;10.300;2023-03-21T08:58:31;37.10;;;25.83;;
62790;SDS011;48830;53.426;10.300;2023-03-21T09:00:57;35.60;;;24.73;;
62790;SDS011;48830;53.426;10.300;2023-03-21T09:03:23;34.07;;;24.57;;
62790;SDS011;48830;53.426;10.300;2023-03-21T09:05:48;38.17;;;25.90;;
62790;SDS011;48830;53.426;10.300;2023-03-21T09:08:18;37.30;;;24.23;;
62790;SDS011;48830;53.426;10.300;2023-03-21T09:10:48;32.47;;;23.97;;
62790;SDS011;48830;53.426;10.300;2023-03-21T09:13:16;32.27;;;23.17;;
62790;SDS011;48830;53.426;10.300;2023-03-21T09:15:42;32.70;;;24.30;;
62790;SDS011;48830;53.426;10.300;2023-03-21T09:18:07;34.47;;;23.80;;
62790;SDS011;48830;53.426;10.300;2023-03-21T09:20:46;32.07;;;22.70;;
62790;SDS011;48830;53.426;10.300;2023-03-21T09:23:12;32.20;;;23.27;;
62790;SDS011;48830;53.426;10.300;2023-03-21T09:25:39;31.17;;;21.38;;
62790;SDS011;48830;53.426;10.300;2023-03-21T09:28:05;28.65;;;22.05;;
62790;SDS011;48830;53.426;10.300;2023-03-21T09:30:31;32.65;;;22.00;;
62790;SDS011;48830;53.426;10.300;2023-03-21T09:32:58;31.40;;;21.97;;
62790;SDS011;48830;53.426;10.300;2023-03-21T09:35:25;30.95;;;22.30;;
62790;SDS011;48830;53.426;10.300;2023-03-21T09:37:52;31.23;;;21.20;;
62790;SDS011;48830;53.426;10.300;2023-03-21T09:40:20;31.33;;;22.35;;
62790;SDS011;48830;53.426;10.300;2023-03-21T09:43:04;33.10;;;22.23;;
62790;SDS011;48830;53.426;10.300;2023-03-21T09:45:41;30.52;;;21.00;;
62790;SDS011;48830;53.426;10.300;2023-03-21T09:48:17;32.42;;;22.08;;
62790;SDS011;48830;53.426;10.300;2023-03-21T09:50:54;30.30;;;21.27;;
62790;SDS011;48830;53.426;10.300;2023-03-21T09:53:24;29.38;;;20.48;;
62790;SDS011;48830;53.426;10.300;2023-03-21T09:55:56;28.63;;;20.83;;
62790;SDS011;48830;53.426;10.300;2023-03-21T09:58:27;30.48;;;21.83;;
62790;SDS011;48830;53.426;10.300;2023-03-21T10:03:34;35.50;;;23.83;;
62790;SDS011;48830;53.426;10.300;2023-03-21T10:06:04;35.67;;;22.17;;
62790;SDS011;48830;53.426;10.300;2023-03-21T10:08:40;32.63;;;22.40;;
62790;SDS011;48830;53.426;10.300;2023-03-21T10:11:13;38.27;;;24.30;;
62790;SDS011;48830;53.426;10.300;2023-03-21T10:13:56;33.47;;;22.65;;
62790;SDS011;48830;53.426;10.300;2023-03-21T10:16:36;39.67;;;23.77;;
62790;SDS011;48830;53.426;10.300;2023-03-21T10:19:09;36.90;;;24.17;;
62790;SDS011;48830;53.426;10.300;2023-03-21T10:21:38;40.88;;;24.65;;
62790;SDS011;48830;53.426;10.300;2023-03-21T10:24:11;35.07;;;22.57;;
62790;SDS011;48830;53.426;10.300;2023-03-21T10:26:46;39.13;;;23.48;;
62790;SDS011;48830;53.426;10.300;2023-03-21T10:29:14;36.92;;;23.92;;
62790;SDS011;48830;53.426;10.300;2023-03-21T10:31:41;35.72;;;24.13;;
62790;SDS011;48830;53.426;10.300;2023-03-21T10:34:11;35.90;;;23.23;;
62790;SDS011;48830;53.426;10.300;2023-03-21T10:36:42;33.00;;;22.27;;
62790;SDS011;48830;53.426;10.300;2023-03-21T10:39:24;38.00;;;24.65;;
62790;SDS011;48830;53.426;10.300;2023-03-21T10:41:55;36.90;;;23.67;;
62790;SDS011;48830;53.426;10.300;2023-03-21T10:44:21;34.38;;;23.08;;
62790;SDS011;48830;53.426;10.300;2023-03-21T10:46:54;33.07;;;23.13;;
62790;SDS011;48830;53.426;10.300;2023-03-21T10:49:21;37.50;;;23.90;;
62790;SDS011;48830;53.426;10.300;2023-03-21T10:51:51;34.33;;;22.70;;
62790;SDS011;48830;53.426;10.300;2023-03-21T10:54:21;34.33;;;21.80;;
62790;SDS011;48830;53.426;10.300;2023-03-21T10:57:03;31.30;;;21.67;;
62790;SDS011;48830;53.426;10.300;2023-03-21T10:59:34;30.13;;;20.88;;
62790;SDS011;48830;53.426;10.300;2023-03-21T11:02:03;28.63;;;19.73;;
62790;SDS011;48830;53.426;10.300;2023-03-21T11:04:31;28.60;;;19.90;;
62790;SDS011;48830;53.426;10.300;2023-03-21T11:06:57;29.13;;;19.70;;
62790;SDS011;48830;53.426;10.300;2023-03-21T11:12:33;30.80;;;20.88;;
62790;SDS011;48830;53.426;10.300;2023-03-21T11:17:53;31.07;;;20.97;;
62790;SDS011;48830;53.426;10.300;2023-03-21T11:20:19;33.03;;;20.65;;
62790;SDS011;48830;53.426;10.300;2023-03-21T11:22:45;29.70;;;20.45;;
62790;SDS011;48830;53.426;10.300;2023-03-21T11:25:19;30.50;;;19.80;;
62790;SDS011;48830;53.426;10.300;2023-03-21T11:27:50;30.02;;;20.15;;
62790;SDS011;48830;53.426;10.300;2023-03-21T11:30:23;34.55;;;21.15;;
62790;SDS011;48830;53.426;10.300;2023-03-21T11:32:53;34.28;;;21.73;;
62790;SDS011;48830;53.426;10.300;2023-03-21T11:35:36;32.67;;;21.45;;
62790;SDS011;48830;53.426;10.300;2023-03-21T11:38:03;34.47;;;21.35;;
62790;SDS011;48830;53.426;10.300;2023-03-21T11:40:32;30.58;;;19.00;;
62790;SDS011;48830;53.426;10.300;2023-03-21T11:43:41;31.15;;;21.00;;
62790;SDS011;48830;53.426;10.300;2023-03-21T11:48:37;29.85;;;19.92;;
62790;SDS011;48830;53.426;10.300;2023-03-21T11:54:37;33.95;;;21.70;;
62790;SDS011;48830;53.426;10.300;2023-03-21T11:59:19;32.75;;;20.40;;
62790;SDS011;48830;53.426;10.300;2023-03-21T12:12:30;30.50;;;18.73;;
62790;SDS011;48830;53.426;10.300;2023-03-21T12:15:05;29.83;;;19.10;;
62790;SDS011;48830;53.426;10.300;2023-03-21T12:17:49;29.52;;;19.08;;
62790;SDS011;48830;53.426;10.300;2023-03-21T12:20:40;31.15;;;18.92;;
62790;SDS011;48830;53.426;10.300;2023-03-21T12:26:18;27.60;;;19.03;;
62790;SDS011;48830;53.426;10.300;2023-03-21T12:29:08;28.38;;;17.83;;
62790;SDS011;48830;53.426;10.300;2023-03-21T12:39:38;25.70;;;15.85;;
62790;SDS011;48830;53.426;10.300;2023-03-21T12:45:15;24.63;;;15.38;;
62790;SDS011;48830;53.426;10.300;2023-03-21T12:47:47;22.25;;;16.85;;
62790;SDS011;48830;53.426;10.300;2023-03-21T12:50:21;21.30;;;14.90;;
62790;SDS011;48830;53.426;10.300;2023-03-21T12:52:49;22.95;;;14.20;;
62790;SDS011;48830;53.426;10.300;2023-03-21T12:55:20;22.25;;;14.55;;
62790;SDS011;48830;53.426;10.300;2023-03-21T12:58:07;21.13;;;13.20;;
62790;SDS011;48830;53.426;10.300;2023-03-21T13:00:44;22.83;;;14.07;;
62790;SDS011;48830;53.426;10.300;2023-03-21T13:11:13;19.58;;;13.07;;
62790;SDS011;48830;53.426;10.300;2023-03-21T13:16:43;18.63;;;13.05;;
62790;SDS011;48830;53.426;10.300;2023-03-21T13:22:21;21.15;;;13.68;;
62790;SDS011;48830;53.426;10.300;2023-03-21T13:24:56;21.85;;;14.23;;
62790;SDS011;48830;53.426;10.300;2023-03-21T13:27:30;20.27;;;14.45;;
62790;SDS011;48830;53.426;10.300;2023-03-21T13:29:59;19.90;;;13.33;;
62790;SDS011;48830;53.426;10.300;2023-03-21T13:32:31;18.83;;;13.68;;
62790;SDS011;48830;53.426;10.300;2023-03-21T13:35:11;17.77;;;13.35;;
62790;SDS011;48830;53.426;10.300;2023-03-21T13:37:49;18.33;;;13.73;;
62790;SDS011;48830;53.426;10.300;2023-03-21T13:40:37;18.95;;;13.15;;
62790;SDS011;48830;53.426;10.300;2023-03-21T13:46:14;18.15;;;12.68;;
62790;SDS011;48830;53.426;10.300;2023-03-21T13:49:01;20.38;;;14.35;;
62790;SDS011;48830;53.426;10.300;2023-03-21T14:05:35;15.13;;;11.27;;
62790;SDS011;48830;53.426;10.300;2023-03-21T14:07:46;16.08;;;12.48;;
62790;SDS011;48830;53.426;10.300;2023-03-21T14:10:19;17.15;;;11.65;;
62790;SDS011;48830;53.426;10.300;2023-03-21T14:12:49;17.05;;;11.73;;
62790;SDS011;48830;53.426;10.300;2023-03-21T14:20:19;17.33;;;11.30;;
62790;SDS011;48830;53.426;10.300;2023-03-21T14:22:48;15.15;;;10.85;;
62790;SDS011;48830;53.426;10.300;2023-03-21T14:25:14;15.68;;;11.52;;
62790;SDS011;48830;53.426;10.300;2023-03-21T14:27:43;16.77;;;11.68;;
62790;SDS011;48830;53.426;10.300;2023-03-21T14:30:29;17.55;;;11.93;;
62790;SDS011;48830;53.426;10.300;2023-03-21T14:33:01;15.70;;;11.57;;
62790;SDS011;48830;53.426;10.300;2023-03-21T14:35:32;16.02;;;12.20;;
62790;SDS011;48830;53.426;10.300;2023-03-21T14:38:04;18.15;;;12.77;;
62790;SDS011;48830;53.426;10.300;2023-03-21T14:40:33;20.25;;;12.32;;
62790;SDS011;48830;53.426;10.300;2023-03-21T14:43:03;18.48;;;12.18;;
62790;SDS011;48830;53.426;10.300;2023-03-21T14:45:30;17.35;;;12.23;;
62790;SDS011;48830;53.426;10.300;2023-03-21T14:53:04;16.52;;;12.75;;
62790;SDS011;48830;53.426;10.300;2023-03-21T14:55:31;16.85;;;12.77;;
62790;SDS011;48830;53.426;10.300;2023-03-21T14:57:57;19.52;;;12.85;;
62790;SDS011;48830;53.426;10.300;2023-03-21T15:00:24;18.77;;;13.00;;
62790;SDS011;48830;53.426;10.300;2023-03-21T15:02:52;18.60;;;12.77;;
62790;SDS011;48830;53.426;10.300;2023-03-21T15:05:23;18.67;;;12.95;;
62790;SDS011;48830;53.426;10.300;2023-03-21T15:08:15;17.85;;;12.95;;
62790;SDS011;48830;53.426;10.300;2023-03-21T15:10:41;17.10;;;12.77;;
62790;SDS011;48830;53.426;10.300;2023-03-21T15:13:18;21.33;;;14.30;;
62790;SDS011;48830;53.426;10.300;2023-03-21T15:15:46;19.52;;;12.77;;
62790;SDS011;48830;53.426;10.300;2023-03-21T15:18:17;18.75;;;13.38;;
62790;SDS011;48830;53.426;10.300;2023-03-21T15:20:56;20.25;;;13.20;;
62790;SDS011;48830;53.426;10.300;2023-03-21T15:23:45;19.83;;;13.50;;
62790;SDS011;48830;53.426;10.300;2023-03-21T15:26:16;20.70;;;12.85;;
62790;SDS011;48830;53.426;10.300;2023-03-21T15:28:45;19.00;;;13.75;;
62790;SDS011;48830;53.426;10.300;2023-03-21T15:31:16;20.05;;;13.40;;
62790;SDS011;48830;53.426;10.300;2023-03-21T15:33:47;18.70;;;13.48;;
62790;SDS011;48830;53.426;10.300;2023-03-21T15:36:21;21.38;;;13.57;;
62790;SDS011;48830;53.426;10.300;2023-03-21T15:38:56;17.95;;;13.25;;
62790;SDS011;48830;53.426;10.300;2023-03-21T15:41:26;20.00;;;13.68;;
62790;SDS011;48830;53.426;10.300;2023-03-21T15:44:12;21.02;;;13.73;;
62790;SDS011;48830;53.426;10.300;2023-03-21T15:49:24;15.60;;;10.63;;
62790;SDS011;48830;53.426;10.300;2023-03-21T15:54:19;12.03;;;9.03;;
62790;SDS011;48830;53.426;10.300;2023-03-21T15:56:51;11.80;;;8.03;;
62790;SDS011;48830;53.426;10.300;2023-03-21T15:59:18;12.17;;;7.03;;
62790;SDS011;48830;53.426;10.300;2023-03-21T16:01:48;12.13;;;6.80;;
62790;SDS011;48830;53.426;10.300;2023-03-21T16:04:15;9.93;;;6.70;;
62790;SDS011;48830;53.426;10.300;2023-03-21T16:09:22;10.97;;;6.40;;
62790;SDS011;48830;53.426;10.300;2023-03-21T16:11:55;9.30;;;5.90;;
62790;SDS011;48830;53.426;10.300;2023-03-21T16:14:23;10.40;;;5.55;;
62790;SDS011;48830;53.426;10.300;2023-03-21T16:16:52;10.95;;;5.60;;
62790;SDS011;48830;53.426;10.300;2023-03-21T16:19:17;8.77;;;5.23;;
62790;SDS011;48830;53.426;10.300;2023-03-21T16:21:43;9.47;;;5.97;;
62790;SDS011;48830;53.426;10.300;2023-03-21T16:24:09;9.43;;;5.97;;
62790;SDS011;48830;53.426;10.300;2023-03-21T16:26:37;10.35;;;6.72;;
62790;SDS011;48830;53.426;10.300;2023-03-21T16:29:06;10.43;;;6.38;;
62790;SDS011;48830;53.426;10.300;2023-03-21T16:31:33;10.13;;;6.40;;
62790;SDS011;48830;53.426;10.300;2023-03-21T16:34:01;10.05;;;6.50;;
62790;SDS011;48830;53.426;10.300;2023-03-21T16:36:28;10.13;;;6.97;;